Time;durP1;ratioP1;P1;durP2;ratioP2;P2;SDS_P1;SDS_P2;PMS_P1;PMS_P2;Temp;Humidity;BMP_temperature;BMP_pressure;BME280_temperature;BME280_humidity;BME280_pressure;Samples;Min_cycle;Max_cycle;Signal;HPM_P1;HPM_P2
2021/01/16 00:01:05;;;;;;;31.87;24.70;;;-2.80;1.40;;;-2.29;100.00;96096.60;605772;232;32440;-70
2021/01/16 00:03:34;;;;;;;31.37;21.10;;;-2.80;1.40;;;-2.30;100.00;96097.88;616575;230;23563;-70
2021/01/16 00:06:03;;;;;;;30.07;21.27;;;-2.80;1.40;;;-2.22;100.00;96103.52;609015;233;25861;-71
2021/01/16 00:08:32;;;;;;;26.93;20.10;;;-2.70;1.40;;;-2.22;100.00;96099.91;617001;230;24618;-71
2021/01/16 00:11:01;;;;;;;33.90;24.87;;;-2.70;1.40;;;-2.17;100.00;96100.59;605982;233;32333;-71
2021/01/16 00:13:33;;;;;;;30.83;22.33;;;-2.80;1.40;;;-2.15;100.00;96104.76;604295;234;23558;-71
2021/01/16 00:16:00;;;;;;;32.33;26.58;;;-2.70;1.40;;;-2.05;100.00;96100.09;599530;233;32291;-70
2021/01/16 00:18:29;;;;;;;29.63;22.17;;;-2.70;1.40;;;-2.04;100.00;96099.67;604774;233;23562;-71
2021/01/16 00:20:59;;;;;;;30.20;21.20;;;-2.70;1.40;;;-2.09;100.00;96100.34;603508;235;24700;-70
2021/01/16 00:23:28;;;;;;;33.00;26.23;;;-2.70;1.40;;;-2.07;100.00;96099.56;598430;234;33358;-71
2021/01/16 00:25:57;;;;;;;32.13;26.10;;;-2.70;1.40;;;-2.07;100.00;96098.03;599646;233;32228;-70
2021/01/16 00:28:29;;;;;;;30.20;23.57;;;-2.70;1.40;;;-1.99;100.00;96097.25;619673;229;23563;-71
2021/01/16 00:30:57;;;;;;;28.97;21.90;;;-2.70;1.40;;;-2.03;100.00;96097.44;613846;230;24647;-70
2021/01/16 00:33:27;;;;;;;24.70;18.20;;;-2.70;1.40;;;-2.06;100.00;96099.62;612353;233;24630;-71
2021/01/16 00:35:56;;;;;;;30.80;19.67;;;-2.70;1.40;;;-2.05;100.00;96106.46;603699;234;24660;-71
2021/01/16 00:38:25;;;;;;;31.70;24.55;;;-2.70;1.40;;;-2.08;100.00;96100.93;598719;235;32256;-71
2021/01/16 00:40:54;;;;;;;25.33;19.80;;;-2.80;1.40;;;-2.15;100.00;96103.06;606617;234;23566;-70
2021/01/16 00:43:23;;;;;;;29.60;23.77;;;-2.80;1.40;;;-2.18;100.00;96107.09;600485;233;32910;-70
2021/01/16 00:45:52;;;;;;;34.03;27.58;;;-2.80;1.40;;;-2.25;100.00;96105.28;599768;234;32252;-70
2021/01/16 00:48:22;;;;;;;27.40;20.07;;;-2.80;1.40;;;-2.36;100.00;96108.39;603427;234;24653;-70
2021/01/16 00:50:53;;;;;;;32.63;25.88;;;-2.80;1.40;;;-2.29;100.00;96105.48;599044;234;32516;-70
2021/01/16 00:53:22;;;;;;;29.27;22.40;;;-2.80;1.40;;;-2.35;100.00;96107.94;604098;234;24616;-70
2021/01/16 00:55:51;;;;;;;34.00;25.27;;;-2.80;1.40;;;-2.31;100.00;96108.43;600422;233;32688;-71
2021/01/16 00:58:20;;;;;;;27.20;20.77;;;-2.90;1.40;;;-2.27;100.00;96111.70;604440;234;23643;-71
2021/01/16 01:00:49;;;;;;;31.97;19.53;;;-2.80;1.40;;;-2.28;100.00;96117.08;603932;234;24672;-71
2021/01/16 01:03:18;;;;;;;28.47;20.57;;;-2.80;1.40;;;-2.25;100.00;96115.00;605233;234;24649;-71
2021/01/16 01:05:47;;;;;;;25.50;19.10;;;-2.80;1.40;;;-2.29;100.00;96120.56;602962;233;25958;-71
2021/01/16 01:08:16;;;;;;;31.73;23.85;;;-2.80;1.40;;;-2.28;100.00;96122.72;598133;233;32283;-71
2021/01/16 01:10:46;;;;;;;25.87;20.80;;;-2.70;1.40;;;-2.29;100.00;96123.63;606512;234;26744;-71
2021/01/16 01:13:15;;;;;;;31.65;24.15;;;-2.70;1.40;;;-2.29;100.00;96122.09;601952;234;32853;-70
2021/01/16 01:18:18;;;;;;;34.45;25.05;;;-2.80;1.40;;;-2.23;100.00;96126.34;646356;216;42294;-71
2021/01/16 01:20:47;;;;;;;34.10;21.30;;;-2.70;1.40;;;-2.15;100.00;96129.17;642652;221;23519;-72
2021/01/16 01:23:16;;;;;;;25.40;18.90;;;-2.70;1.40;;;-2.22;100.00;96126.14;642040;220;24555;-71
2021/01/16 01:25:46;;;;;;;29.60;19.87;;;-2.70;1.40;;;-2.21;100.00;96127.47;642573;220;29875;-72
2021/01/16 01:28:15;;;;;;;28.48;22.15;;;-2.70;1.40;;;-2.22;100.00;96124.36;635014;221;31744;-71
2021/01/16 01:30:44;;;;;;;26.27;19.03;;;-2.70;1.40;;;-2.21;100.00;96125.27;650741;217;23487;-72
2021/01/16 01:33:14;;;;;;;26.83;18.70;;;-2.70;1.40;;;-2.07;100.00;96123.05;669012;211;25813;-72
2021/01/16 01:35:43;;;;;;;22.77;17.07;;;-2.70;1.40;;;-2.15;100.00;96121.64;671314;211;26544;-72
2021/01/16 01:38:16;;;;;;;30.12;23.02;;;-2.80;1.40;;;-2.11;100.00;96127.27;662273;211;31436;-72
2021/01/16 01:40:45;;;;;;;29.85;22.75;;;-2.80;1.40;;;-2.20;100.00;96137.98;665361;211;31455;-72
2021/01/16 01:43:14;;;;;;;28.33;20.23;;;-2.80;1.40;;;-2.20;100.00;96129.98;670383;211;23447;-72
2021/01/16 01:45:43;;;;;;;28.17;19.03;;;-2.80;1.40;;;-2.14;100.00;96131.78;641764;221;26685;-72
2021/01/16 01:48:13;;;;;;;30.67;21.45;;;-2.70;1.40;;;-2.22;100.00;96127.16;653147;215;31559;-72
2021/01/16 01:50:41;;;;;;;27.33;20.90;;;-2.80;1.40;;;-2.20;100.00;96128.84;654807;215;23461;-72
2021/01/16 01:53:10;;;;;;;28.02;22.08;;;-2.80;1.40;;;-2.37;100.00;96124.77;650407;215;31596;-72
2021/01/16 01:55:40;;;;;;;28.27;19.93;;;-2.80;1.40;;;-2.44;100.00;96121.19;654886;216;23528;-71
2021/01/16 01:58:09;;;;;;;26.83;20.00;;;-2.80;1.40;;;-2.42;100.00;96123.70;656108;216;24486;-72
2021/01/16 02:00:38;;;;;;;30.73;22.83;;;-2.80;1.40;;;-2.42;100.00;96127.39;649490;216;31655;-72
2021/01/16 02:03:07;;;;;;;25.80;19.80;;;-2.90;1.40;;;-2.32;100.00;96125.12;643087;221;23492;-72
2021/01/16 02:05:36;;;;;;;30.02;23.80;;;-2.80;1.40;;;-2.28;100.00;96131.52;649805;216;32250;-71
2021/01/16 02:08:05;;;;;;;31.05;24.23;;;-2.80;1.40;;;-2.13;100.00;96127.19;651815;215;31643;-72
2021/01/16 02:10:34;;;;;;;27.33;20.30;;;-2.80;1.40;;;-2.31;100.00;96125.57;653777;215;23497;-71
2021/01/16 02:13:03;;;;;;;27.77;20.00;;;-2.80;1.40;;;-2.18;100.00;96123.06;643907;221;24508;-71
2021/01/16 02:15:52;;;;;;;30.73;24.70;;;-2.80;1.40;;;-2.25;100.00;96121.28;639576;215;31752;-72
2021/01/16 02:18:30;;;;;;;22.90;18.33;;;-2.80;1.40;;;-2.20;100.00;96124.89;642860;221;23482;-72
2021/01/16 02:20:57;;;;;;;25.10;18.93;;;-2.80;1.40;;;-2.23;100.00;96122.73;654813;215;24645;-72
2021/01/16 02:23:48;;;;;;;28.10;22.02;;;-2.80;1.40;;;-2.30;100.00;96125.62;651043;216;42725;-72
2021/01/16 02:29:07;;;;;;;30.27;23.20;;;-2.80;1.40;;;-2.36;100.00;96118.04;646739;216;31673;-70
2021/01/16 02:31:37;;;;;;;26.43;21.10;;;-2.80;1.40;;;-2.42;100.00;96116.84;641065;220;23513;-70
2021/01/16 02:34:07;;;;;;;29.50;22.52;;;-2.80;1.40;;;-2.37;100.00;96115.78;638577;220;31764;-71
2021/01/16 02:39:48;;;;;;;26.90;22.70;;;-2.80;1.40;;;-2.49;100.00;96112.73;646197;213;31722;-71
2021/01/16 02:42:25;;;;;;;26.70;20.37;;;-2.90;1.40;;;-2.38;100.00;96113.23;641604;219;23528;-72
2021/01/16 02:45:10;;;;;;;28.87;21.95;;;-2.90;1.40;;;-2.45;100.00;96109.88;651619;211;31616;-72
2021/01/16 02:48:00;;;;;;;27.53;19.47;;;-2.90;1.40;;;-2.51;100.00;96110.54;658239;215;23495;-71
2021/01/16 02:50:29;;;;;;;29.23;22.23;;;-2.90;1.40;;;-2.46;100.00;96114.28;638364;220;31750;-72
2021/01/16 02:52:58;;;;;;;23.70;19.73;;;-2.90;1.40;;;-2.49;100.00;96113.53;653392;215;23464;-72
2021/01/16 02:55:27;;;;;;;26.73;21.00;;;-2.90;1.40;;;-2.40;100.00;96110.84;652454;215;32193;-72
2021/01/16 02:57:56;;;;;;;27.17;21.58;;;-2.80;1.40;;;-2.30;100.00;96111.58;649410;215;31615;-72
2021/01/16 03:00:25;;;;;;;33.40;20.27;;;-2.80;1.40;;;-2.37;100.00;96112.97;641983;220;23491;-72
2021/01/16 03:02:54;;;;;;;28.23;18.97;;;-2.80;1.40;;;-2.48;100.00;96112.63;656532;215;24557;-72
2021/01/16 03:05:23;;;;;;;23.47;18.87;;;-2.90;1.40;;;-2.47;100.00;96112.98;656054;215;25519;-72
2021/01/16 03:07:52;;;;;;;27.23;22.45;;;-2.90;1.40;;;-2.47;100.00;96115.21;635250;220;31749;-72
2021/01/16 03:10:21;;;;;;;27.60;20.13;;;-2.90;1.40;;;-2.49;100.00;96112.80;657797;215;23450;-72
2021/01/16 03:12:51;;;;;;;27.77;22.00;;;-2.90;1.40;;;-2.47;100.00;96119.09;637455;220;31805;-69
2021/01/16 03:15:20;;;;;;;26.63;19.33;;;-2.90;1.40;;;-2.55;100.00;96114.79;655876;215;23449;-70
2021/01/16 03:17:56;;;;;;;29.42;24.37;;;-2.90;1.40;;;-2.55;100.00;96117.40;653345;216;42230;-70
2021/01/16 03:20:26;;;;;;;29.67;21.03;;;-2.90;1.40;;;-2.51;100.00;96115.73;654887;216;23450;-70
2021/01/16 03:22:56;;;;;;;23.20;18.97;;;-2.90;1.40;;;-2.47;100.00;96120.21;643206;221;24528;-70
2021/01/16 03:25:25;;;;;;;30.02;23.48;;;-2.90;1.40;;;-2.43;100.00;96122.69;623933;224;31986;-70
2021/01/16 03:27:54;;;;;;;24.93;19.97;;;-2.90;1.40;;;-2.48;100.00;96118.08;641236;220;23494;-70
2021/01/16 03:30:23;;;;;;;30.33;22.10;;;-2.90;1.40;;;-2.40;100.00;96122.67;638459;221;31763;-71
2021/01/16 03:32:52;;;;;;;29.83;23.30;;;-2.80;1.40;;;-2.40;100.00;96117.67;649228;216;31599;-71
2021/01/16 03:35:21;;;;;;;21.90;18.60;;;-2.80;1.40;;;-2.31;100.00;96119.61;654530;216;23894;-71
2021/01/16 03:37:50;;;;;;;22.90;18.27;;;-2.80;1.40;;;-2.36;100.00;96121.41;655920;216;24499;-71
2021/01/16 03:40:19;;;;;;;27.92;21.30;;;-2.80;1.40;;;-2.26;100.00;96121.60;653222;215;32255;-71
2021/01/16 03:42:48;;;;;;;23.80;18.70;;;-2.80;1.40;;;-2.33;100.00;96117.00;655014;215;23522;-71
2021/01/16 03:45:18;;;;;;;28.67;22.35;;;-2.80;1.40;;;-2.31;100.00;96116.91;636716;220;31778;-71
2021/01/16 03:47:47;;;;;;;23.67;20.10;;;-2.80;1.40;;;-2.36;100.00;96118.67;655832;216;28802;-72
2021/01/16 03:50:16;;;;;;;24.03;17.03;;;-2.80;1.40;;;-2.33;100.00;96113.92;655116;215;24532;-71
2021/01/16 03:52:45;;;;;;;23.93;17.20;;;-2.90;1.40;;;-2.30;100.00;96114.98;657843;215;29782;-71
2021/01/16 03:55:14;;;;;;;27.70;21.37;;;-2.90;1.40;;;-2.25;100.00;96113.70;653233;215;31615;-71
2021/01/16 03:57:43;;;;;;;24.35;20.23;;;-2.80;1.40;;;-2.30;100.00;96115.47;639316;220;31811;-71
2021/01/16 04:00:13;;;;;;;24.87;20.30;;;-2.80;1.40;;;-2.33;100.00;96117.07;643780;219;23487;-71
2021/01/16 04:02:42;;;;;;;25.70;18.03;;;-2.90;1.40;;;-2.33;100.00;96111.50;632668;224;29896;-70
2021/01/16 04:05:12;;;;;;;26.20;21.10;;;-2.90;1.40;;;-2.35;100.00;96113.31;622042;224;43388;-69
2021/01/16 04:07:41;;;;;;;23.50;16.30;;;-2.90;1.40;;;-2.32;100.00;96113.63;629792;225;23566;-70
2021/01/16 04:10:11;;;;;;;26.25;21.23;;;-2.80;1.40;;;-2.30;100.00;96112.13;626019;225;31981;-70
2021/01/16 04:12:40;;;;;;;24.70;17.47;;;-2.80;1.40;;;-2.38;100.00;96109.92;628667;225;23500;-70
2021/01/16 04:15:10;;;;;;;26.10;21.08;;;-2.90;1.40;;;-2.35;100.00;96110.61;622650;225;31996;-70
2021/01/16 04:17:39;;;;;;;20.70;17.37;;;-2.90;1.40;;;-2.34;100.00;96112.77;626553;225;23967;-70
2021/01/16 04:20:09;;;;;;;25.62;19.80;;;-2.90;1.40;;;-2.35;100.00;96115.48;621665;225;32110;-70
2021/01/16 04:22:38;;;;;;;22.63;17.77;;;-2.90;1.40;;;-2.40;100.00;96114.48;630044;225;23503;-70
2021/01/16 04:25:07;;;;;;;24.42;19.73;;;-2.90;1.40;;;-2.36;100.00;96113.70;625060;224;31961;-71
2021/01/16 04:27:36;;;;;;;26.45;20.15;;;-2.90;1.40;;;-2.31;100.00;96116.97;636865;221;31751;-70
2021/01/16 04:30:06;;;;;;;24.77;17.67;;;-2.80;1.40;;;-2.25;100.00;96121.12;658770;216;23471;-70
2021/01/16 04:32:35;;;;;;;25.70;20.60;;;-2.80;1.40;;;-2.31;100.00;96117.98;650766;215;31900;-70
2021/01/16 04:35:05;;;;;;;24.93;17.30;;;-2.80;1.40;;;-2.54;100.00;96131.66;656535;216;23433;-70
2021/01/16 04:37:34;;;;;;;23.37;19.67;;;-2.80;1.40;;;-2.48;100.00;96124.80;650080;215;31877;-70
2021/01/16 04:40:05;;;;;;;22.40;16.80;;;-2.80;1.40;;;-2.49;100.00;96118.27;647326;221;24534;-70
2021/01/16 04:42:34;;;;;;;19.90;16.70;;;-2.80;1.40;;;-2.44;100.00;96120.23;656430;216;24477;-70
2021/01/16 04:45:04;;;;;;;25.55;19.87;;;-2.80;1.40;;;-2.45;100.00;96116.89;651215;214;31602;-70
2021/01/16 04:47:33;;;;;;;21.47;17.23;;;-2.90;1.40;;;-2.43;100.00;96118.77;656415;216;23470;-70
2021/01/16 04:50:03;;;;;;;23.53;17.57;;;-2.90;1.40;;;-2.49;100.00;96122.80;656639;216;24453;-70
2021/01/16 04:52:32;;;;;;;25.70;19.90;;;-2.80;1.40;;;-2.50;100.00;96123.22;638494;221;31825;-70
2021/01/16 04:55:01;;;;;;;24.87;17.13;;;-2.90;1.40;;;-2.45;100.00;96119.98;656733;216;23485;-70
2021/01/16 04:57:30;;;;;;;28.45;20.95;;;-2.90;1.40;;;-2.51;100.00;96122.64;649148;216;31827;-70
2021/01/16 05:00:00;;;;;;;24.87;18.17;;;-2.90;1.40;;;-2.43;100.00;96119.24;659544;216;23790;-69
2021/01/16 05:02:29;;;;;;;25.35;20.20;;;-2.90;1.40;;;-2.51;100.00;96119.20;634237;220;31763;-70
2021/01/16 05:04:58;;;;;;;27.07;21.70;;;-2.90;1.40;;;-2.42;100.00;96119.37;651609;215;42162;-70
2021/01/16 05:07:27;;;;;;;24.63;18.20;;;-2.90;1.40;;;-2.48;100.00;96123.52;654080;215;25752;-70
2021/01/16 05:09:56;;;;;;;28.12;21.00;;;-2.90;1.40;;;-2.50;100.00;96124.97;653735;215;31581;-70
2021/01/16 05:15:19;;;;;;;26.60;20.00;;;-2.90;1.40;;;-2.59;100.00;96123.72;646229;212;31590;-70
2021/01/16 05:17:53;;;;;;;20.57;16.90;;;-3.00;1.40;;;-2.55;100.00;96124.28;641184;221;23479;-70
2021/01/16 05:20:22;;;;;;;25.73;19.60;;;-2.90;1.40;;;-2.54;100.00;96125.39;653782;216;31635;-70
2021/01/16 05:25:26;;;;;;;26.90;20.85;;;-2.90;1.40;;;-2.55;100.00;96118.36;618515;225;31929;-71
2021/01/16 05:27:55;;;;;;;22.23;16.80;;;-3.00;1.40;;;-2.51;100.00;96119.20;615284;229;24644;-71
2021/01/16 05:30:25;;;;;;;24.00;19.42;;;-2.90;1.40;;;-2.55;100.00;96123.83;611223;230;32404;-71
2021/01/16 05:32:54;;;;;;;22.97;17.87;;;-3.00;1.40;;;-2.44;100.00;96119.91;616274;230;24656;-72
2021/01/16 05:35:51;;;;;;;26.95;21.12;;;-3.00;1.40;;;-2.53;100.00;96126.88;647193;212;31616;-69
2021/01/16 05:38:27;;;;;;;25.17;18.70;;;-3.00;1.40;;;-2.58;100.00;96128.42;640511;220;23510;-69
2021/01/16 05:40:56;;;;;;;26.60;18.03;;;-3.00;1.40;;;-2.72;100.00;96133.68;641773;220;24548;-69
2021/01/16 05:43:26;;;;;;;28.12;20.37;;;-3.10;1.40;;;-2.69;100.00;96134.34;637083;221;31800;-70
2021/01/16 05:45:58;;;;;;;25.17;17.97;;;-3.10;1.40;;;-2.64;100.00;96137.58;643149;219;23484;-70
2021/01/16 05:48:27;;;;;;;26.00;21.20;;;-3.10;1.40;;;-2.59;100.00;96141.48;648619;216;31574;-69
2021/01/16 05:50:56;;;;;;;24.87;19.53;;;-3.00;1.40;;;-2.75;100.00;96141.17;668074;211;23444;-69
2021/01/16 05:53:26;;;;;;;24.80;16.90;;;-3.10;1.40;;;-2.74;100.00;96142.19;654591;216;25489;-70
2021/01/16 05:55:55;;;;;;;26.90;20.12;;;-3.10;1.40;;;-2.78;100.00;96138.69;651267;216;31607;-70
2021/01/16 05:58:25;;;;;;;25.70;18.10;;;-3.10;1.40;;;-2.73;100.00;96137.25;644355;220;23494;-69
2021/01/16 06:00:54;;;;;;;27.52;21.15;;;-3.10;1.40;;;-2.80;100.00;96137.17;640224;220;31695;-69
2021/01/16 06:03:23;;;;;;;31.13;20.63;;;-3.10;1.40;;;-2.78;100.00;96138.47;653966;219;23447;-70
2021/01/16 06:05:52;;;;;;;26.20;20.17;;;-3.10;1.40;;;-2.87;100.00;96135.33;635462;221;31718;-69
2021/01/16 06:08:21;;;;;;;21.97;16.80;;;-3.10;1.40;;;-2.90;100.00;96138.67;642724;220;23469;-70
2021/01/16 06:10:53;;;;;;;24.80;19.75;;;-3.10;1.40;;;-2.92;100.00;96135.34;660917;211;31423;-70
2021/01/16 06:16:03;;;;;;;24.35;19.40;;;-3.20;1.40;;;-2.97;100.00;96135.72;647749;216;32147;-69
2021/01/16 06:18:37;;;;;;;22.50;16.87;;;-3.20;1.40;;;-2.96;100.00;96138.84;642057;220;23547;-70
2021/01/16 06:21:06;;;;;;;23.30;19.10;;;-3.20;1.40;;;-2.95;100.00;96146.25;635901;220;31869;-70
2021/01/16 06:23:36;;;;;;;27.55;21.50;;;-3.20;1.40;;;-2.85;100.00;96148.50;635028;221;31771;-70
2021/01/16 06:26:07;;;;;;;27.73;22.02;;;-3.10;1.40;;;-2.82;100.00;96143.54;634215;221;31964;-70
2021/01/16 06:28:40;;;;;;;26.10;18.43;;;-3.20;1.40;;;-2.91;100.00;96139.03;641840;220;24598;-70
2021/01/16 06:31:09;;;;;;;26.87;21.08;;;-3.20;1.40;;;-2.90;100.00;96140.11;635199;221;31855;-71
2021/01/16 06:33:38;;;;;;;23.47;18.33;;;-3.20;1.40;;;-2.94;100.00;96139.60;639035;220;23474;-71
2021/01/16 06:36:08;;;;;;;27.73;21.40;;;-3.30;1.40;;;-2.91;100.00;96132.98;630178;221;31794;-71
2021/01/16 06:38:37;;;;;;;25.60;20.47;;;-3.20;1.40;;;-3.01;100.00;96125.52;641054;220;23487;-70
2021/01/16 06:41:14;;;;;;;28.23;21.75;;;-3.20;1.40;;;-2.96;100.00;96133.53;633660;220;31973;-70
2021/01/16 06:43:43;;;;;;;23.03;18.33;;;-3.20;1.40;;;-3.00;100.00;96136.46;640796;221;23477;-70
2021/01/16 06:46:12;;;;;;;26.60;19.17;;;-3.20;1.40;;;-3.00;100.00;96131.47;642312;220;24517;-70
2021/01/16 06:48:43;;;;;;;30.45;22.67;;;-3.20;1.40;;;-2.99;100.00;96134.77;638163;220;31570;-70
2021/01/16 06:51:18;;;;;;;30.15;24.00;;;-3.20;1.40;;;-2.96;100.00;96132.38;664765;211;32026;-70
2021/01/16 06:53:47;;;;;;;28.95;24.30;;;-3.20;1.40;;;-2.99;100.00;96136.84;664699;211;32470;-70
2021/01/16 06:56:16;;;;;;;31.70;24.80;;;-3.20;1.40;;;-3.08;100.00;96138.95;664999;211;31513;-71
2021/01/16 06:58:45;;;;;;;32.33;20.57;;;-3.20;1.40;;;-3.07;100.00;96140.63;669459;211;25954;-70
2021/01/16 07:01:14;;;;;;;31.10;23.90;;;-3.20;1.40;;;-3.08;100.00;96142.03;662209;211;31469;-70
2021/01/16 07:03:44;;;;;;;30.50;23.87;;;-3.20;1.40;;;-3.04;100.00;96145.22;669639;211;23966;-71
2021/01/16 07:06:13;;;;;;;31.35;24.17;;;-3.20;1.40;;;-2.92;100.00;96142.41;662504;211;31456;-71
2021/01/16 07:08:42;;;;;;;29.73;21.40;;;-3.20;1.40;;;-3.01;100.00;96143.17;668958;211;23427;-70
2021/01/16 07:11:11;;;;;;;31.12;24.10;;;-3.20;1.40;;;-3.01;100.00;96147.88;663817;211;31426;-70
2021/01/16 07:13:42;;;;;;;31.30;21.37;;;-3.20;1.40;;;-2.96;100.00;96144.28;665751;211;23445;-71
2021/01/16 07:16:10;;;;;;;32.65;24.27;;;-3.20;1.40;;;-2.95;100.00;96151.73;663699;211;31626;-70
2021/01/16 07:18:41;;;;;;;28.10;21.30;;;-3.20;1.40;;;-2.92;100.00;96148.64;667452;211;23649;-70
2021/01/16 07:21:10;;;;;;;30.65;23.38;;;-3.20;1.40;;;-2.99;100.00;96151.80;664671;211;31667;-71
2021/01/16 07:23:39;;;;;;;33.70;24.40;;;-3.20;1.40;;;-2.95;100.00;96148.58;669821;211;23579;-70
2021/01/16 07:26:08;;;;;;;32.65;24.15;;;-3.20;1.40;;;-2.96;100.00;96144.41;649163;214;43573;-70
2021/01/16 07:28:37;;;;;;;31.80;23.92;;;-3.20;1.40;;;-2.87;100.00;96147.77;663970;211;42212;-71
2021/01/16 07:31:06;;;;;;;31.23;23.40;;;-3.20;1.40;;;-2.87;100.00;96146.50;668097;211;23725;-70
2021/01/16 07:33:35;;;;;;;31.55;24.23;;;-3.20;1.40;;;-2.82;100.00;96148.12;666473;211;31974;-71
2021/01/16 07:36:05;;;;;;;31.30;22.27;;;-3.20;1.40;;;-2.71;100.00;96150.81;669036;211;24061;-71
2021/01/16 07:41:10;;;;;;;35.50;26.12;;;-3.10;1.40;;;-2.68;100.00;96156.88;656395;216;42189;-73
2021/01/16 07:43:57;;;;;;;28.83;21.33;;;-3.10;1.40;;;-2.74;100.00;96150.59;650747;220;25565;-73
2021/01/16 07:46:26;;;;;;;30.83;23.60;;;-3.10;1.40;;;-2.69;100.00;96151.79;644485;220;31909;-73
2021/01/16 07:48:57;;;;;;;31.67;22.77;;;-3.10;1.40;;;-2.69;100.00;96150.27;664638;215;23486;-73
2021/01/16 07:54:09;;;;;;;33.55;25.55;;;-3.00;1.40;;;-2.57;100.00;96153.45;620057;225;42580;-68
2021/01/16 07:56:40;;;;;;;29.77;20.43;;;-3.00;1.40;;;-2.50;100.00;96152.64;614511;229;23534;-67
2021/01/16 07:59:17;;;;;;;30.43;22.80;;;-2.90;1.40;;;-2.61;100.00;96154.55;611898;230;32141;-68
2021/01/16 08:01:51;;;;;;;24.37;17.77;;;-2.90;1.40;;;-2.53;100.00;96153.16;614146;229;24674;-68
2021/01/16 08:04:27;;;;;;;31.15;23.70;;;-2.90;1.40;;;-2.55;100.00;96154.82;615093;229;32179;-68
2021/01/16 08:07:11;;;;;;;34.53;21.60;;;-2.90;1.40;;;-2.43;100.00;96154.44;617943;229;23535;-67
2021/01/16 08:09:53;;;;;;;29.90;19.53;;;-2.90;1.40;;;-2.56;100.00;96155.39;640834;221;24554;-68
2021/01/16 08:12:22;;;;;;;30.40;22.33;;;-2.90;1.40;;;-2.55;100.00;96159.15;634276;220;31933;-67
2021/01/16 08:14:52;;;;;;;30.12;24.08;;;-2.90;1.40;;;-2.45;100.00;96153.71;636137;221;42415;-68
2021/01/16 08:17:25;;;;;;;28.37;21.80;;;-2.90;1.40;;;-2.52;100.00;96152.45;640869;221;23531;-68
2021/01/16 08:20:14;;;;;;;28.45;21.10;;;-2.80;1.40;;;-2.32;100.00;96150.90;614369;229;32104;-68
2021/01/16 08:25:28;;;;;;;27.40;21.35;;;-2.70;1.40;;;-2.20;100.00;96145.13;646405;212;31598;-70
2021/01/16 08:27:57;;;;;;;23.77;18.63;;;-2.60;1.40;;;-2.08;100.00;96139.78;641334;220;27904;-70
2021/01/16 08:30:30;;;;;;;21.53;16.80;;;-2.60;1.40;;;-2.26;100.00;96149.70;639489;220;24564;-70
2021/01/16 08:33:07;;;;;;;25.23;16.70;;;-2.60;1.40;;;-2.25;100.00;96142.91;641327;221;24676;-70
2021/01/16 08:35:48;;;;;;;26.53;20.50;;;-2.50;1.40;;;-2.24;100.00;96147.02;654768;216;24767;-70
2021/01/16 08:38:24;;;;;;;20.07;15.57;;;-2.50;1.40;;;-2.22;100.00;96146.12;668544;211;27589;-70
2021/01/16 08:41:03;;;;;;;24.50;17.30;;;-2.50;1.40;;;-2.16;100.00;96142.36;669839;211;24552;-70
2021/01/16 08:43:40;;;;;;;25.35;17.95;;;-2.50;1.40;;;-2.07;100.00;96144.66;661751;211;31459;-70
2021/01/16 08:46:26;;;;;;;22.73;16.47;;;-2.40;1.40;;;-2.08;100.00;96139.38;651328;219;23529;-70
2021/01/16 08:49:09;;;;;;;25.40;19.65;;;-2.40;1.40;;;-1.99;100.00;96144.62;648767;216;42231;-67
2021/01/16 08:54:18;;;;;;;25.23;20.92;;;-2.40;1.40;;;-2.00;100.00;96147.08;618528;226;32975;-69
2021/01/16 08:56:50;;;;;;;24.67;20.33;;;-2.30;1.40;;;-2.09;100.00;96150.69;608848;229;32834;-68
2021/01/16 08:59:20;;;;;;;23.70;17.47;;;-2.40;1.40;;;-1.91;100.00;96149.49;616064;230;23571;-69
2021/01/16 09:01:49;;;;;;;23.53;17.03;;;-2.30;1.40;;;-1.91;100.00;96149.33;616530;229;24616;-69
2021/01/16 09:04:20;;;;;;;19.13;14.70;;;-2.30;1.40;;;-1.92;100.00;96153.77;615886;230;24624;-69
2021/01/16 09:06:49;;;;;;;23.77;17.60;;;-2.30;1.40;;;-1.91;100.00;96157.56;616085;230;24613;-69
2021/01/16 09:09:24;;;;;;;23.27;18.90;;;-2.30;1.40;;;-1.85;100.00;96158.23;611843;229;32222;-69
2021/01/16 09:12:04;;;;;;;23.23;16.63;;;-2.20;1.40;;;-1.82;99.98;96155.70;611232;230;23583;-69
2021/01/16 09:14:34;;;;;;;24.93;17.00;;;-2.30;1.40;;;-1.95;99.81;96155.92;617263;229;25645;-69
2021/01/16 09:17:17;;;;;;;23.07;16.47;;;-2.30;1.40;;;-1.90;100.00;96159.78;628349;225;24629;-68
2021/01/16 09:19:52;;;;;;;25.47;18.27;;;-2.30;1.40;;;-1.61;99.70;96159.91;611519;229;42002;-69
2021/01/16 09:22:24;;;;;;;22.20;17.30;;;-2.10;1.40;;;-1.81;99.54;96159.20;630155;225;24562;-70
2021/01/16 09:24:54;;;;;;;21.53;16.03;;;-2.20;1.40;;;-1.88;100.00;96166.92;628314;225;24867;-69
2021/01/16 09:27:24;;;;;;;20.00;14.00;;;-2.20;1.40;;;-1.81;100.00;96166.78;615670;229;25757;-68
2021/01/16 09:29:53;;;;;;;23.27;15.30;;;-2.20;1.40;;;-1.64;99.67;96164.14;627188;225;24567;-69
2021/01/16 09:32:29;;;;;;;17.30;14.23;;;-2.10;1.40;;;-1.63;98.81;96163.12;618039;230;24652;-69
2021/01/16 09:34:58;;;;;;;21.23;16.17;;;-2.10;1.40;;;-1.54;97.42;96163.12;624944;226;24664;-68
2021/01/16 09:37:27;;;;;;;22.50;15.70;;;-2.00;1.40;;;-1.50;97.61;96163.05;615738;229;24606;-69
2021/01/16 09:40:10;;;;;;;17.60;14.73;;;-1.90;1.40;;;-1.38;97.55;96166.13;629674;226;24619;-69
2021/01/16 09:42:45;;;;;;;19.98;17.35;;;-1.90;1.40;;;-1.21;96.32;96166.10;626092;225;31978;-69
2021/01/16 09:45:14;;;;;;;24.15;17.10;;;-1.80;1.40;;;-1.38;95.95;96166.56;610889;229;42884;-70
2021/01/16 09:47:45;;;;;;;21.60;14.63;;;-2.00;1.40;;;-1.50;96.03;96160.88;617542;230;23511;-68
2021/01/16 09:50:16;;;;;;;18.40;13.83;;;-1.90;1.40;;;-1.42;95.77;96158.11;626263;225;27752;-68
2021/01/16 09:52:50;;;;;;;19.90;14.00;;;-1.90;1.40;;;-1.46;95.93;96159.25;616056;230;24603;-68
2021/01/16 09:55:20;;;;;;;22.13;13.70;;;-1.90;1.40;;;-1.50;95.79;96154.78;621443;229;24593;-69
2021/01/16 09:57:49;;;;;;;16.13;12.70;;;-2.00;1.40;;;-1.48;95.47;96148.64;621766;229;24580;-68
2021/01/16 10:00:36;;;;;;;20.62;15.95;;;-1.90;1.40;;;-1.30;95.90;96142.20;613995;229;32106;-68
2021/01/16 10:03:09;;;;;;;17.13;14.80;;;-1.80;1.40;;;-1.21;94.31;96142.55;630007;226;25646;-68
2021/01/16 10:05:40;;;;;;;17.93;13.10;;;-1.80;1.40;;;-1.20;94.32;96142.83;617675;228;24605;-69
2021/01/16 10:08:09;;;;;;;16.50;13.00;;;-1.80;1.40;;;-1.18;94.28;96141.73;630722;225;24590;-68
2021/01/16 10:13:12;;;;;;;22.52;17.70;;;-1.80;1.40;;;-1.38;95.59;96129.11;648019;216;31669;-68
2021/01/16 10:15:44;;;;;;;18.30;15.23;;;-1.80;1.40;;;-1.34;94.97;96125.52;638872;221;23520;-67
2021/01/16 10:18:13;;;;;;;20.77;17.27;;;-1.70;1.40;;;-1.21;95.28;96125.85;651531;216;32279;-67
2021/01/16 10:20:43;;;;;;;20.80;15.90;;;-1.60;1.40;;;-0.97;94.78;96115.92;671014;211;23434;-68
2021/01/16 10:23:13;;;;;;;18.47;14.53;;;-1.50;1.40;;;-1.17;93.43;96108.81;644372;220;24666;-68
2021/01/16 10:25:42;;;;;;;19.97;13.87;;;-1.60;1.40;;;-1.27;93.72;96113.42;670371;211;28966;-68
2021/01/16 10:28:13;;;;;;;21.40;16.00;;;-1.60;1.40;;;-1.09;93.45;96109.09;665111;211;31512;-69
2021/01/16 10:30:52;;;;;;;19.93;15.23;;;-1.50;1.40;;;-1.04;92.88;96107.23;668580;211;23426;-68
2021/01/16 10:33:21;;;;;;;19.23;14.60;;;-1.50;1.40;;;-1.00;92.38;96105.44;668750;211;24437;-68
2021/01/16 10:35:50;;;;;;;17.17;12.50;;;-1.60;1.40;;;-1.06;92.98;96110.21;670772;211;24454;-68
2021/01/16 10:38:43;;;;;;;20.70;14.53;;;-1.60;1.40;;;-1.21;93.51;96098.44;670748;211;24619;-68
2021/01/16 10:41:21;;;;;;;22.13;16.85;;;-1.50;1.40;;;-1.03;93.12;96094.33;619915;225;32046;-68
2021/01/16 10:43:50;;;;;;;19.50;14.50;;;-1.40;1.40;;;-1.11;92.39;96089.98;605653;230;24662;-68
2021/01/16 10:46:29;;;;;;;18.90;13.10;;;-1.50;1.40;;;-0.93;92.54;96086.41;614632;229;27807;-69
2021/01/16 10:48:52;;;;;;;17.80;13.80;;;-1.20;1.40;;;-0.71;91.59;96084.69;628388;224;24632;-68
2021/01/16 10:51:21;;;;;;;18.70;13.77;;;-1.20;1.40;;;-0.55;90.84;96077.32;630091;225;24660;-68
2021/01/16 10:53:50;;;;;;;20.40;13.93;;;-1.00;1.40;;;-0.21;88.77;96082.28;629866;224;26756;-69